岩国 の空港の天気 - METARとTAF

岩国飛行場 ( RJOI / IWK ) - 山口県岩国市
飛行場実況気象(Metar)
観測時間08/26 03:55 JST (08/25 18:55 UTC)
風向・風速北西 2m/s
視程10km以上
天気現象
全天の4割程度の雲 雲底高度 460m
全天の8割程度の雲 雲底高度 4570m
気温22.2℃
湿度91%
気圧1013.2hPa
METARRJOI 251855Z 31004KT 9999 SCT015 BKN150 22/21 A2992 RMK SLP132 T02220206
過去の天気等 Google飛行場航空写真 Wunderground天気予報

過去48時間のMETAR

飛行場予報(TAF)
発表時間: -
26日9時 JST から
風向・風速不定 3m/s
視程10km以上
少しの雲 雲底高度 910m
全天の8割程度の雲 雲底高度 3660m
26日12時 JST ~ 26日14時 JST に徐々に
風向・風速不定 2m/s
視程10km以上
全天の4割程度の雲 雲底高度 3050m
26日18時 JST から
風向・風速不定 2m/s
視程10km以上
全天の4割程度の雲 雲底高度 610m
全天の8割程度の雲 雲底高度 1520m
全天の8割程度の雲 雲底高度 7320m
TAF RJOI 2513/2613 VRB05KT 9999 FEW030 SCT150 BKN200 621654 QNH2986INS
FM260000 VRB05KT 9999 FEW030 BKN120 600000 QNH2988INS
BECMG 2603/2605 VRB04KT 9999 SCT100 QNH2986INS
FM260900 VRB04KT 9999 SCT020 BKN050 BKN240 622103 QNH2988INS T21/2520Z T28/2605Z
日本の空港のMETAR・TAFへのリンク

RJTT 東京国際空港
RJAA 新東京国際空港
RJBB 関西国際空港
RJOO 大阪空港
RJGG 中部国際空港
RJCC 新千歳空港
RJFF 福岡空港
ROAH 那覇空港


RJEC 旭川空港
RJCH 函館空港
RJCK 釧路空港
RJCM 女満別空港
RJCB 帯広空港
RJSA 青森空港
RJSS 仙台空港
RJSK 秋田空港
RJSF 福島空港
RJAH 茨城空港
RJSN 新潟空港
RJNT 富山空港
RJNK 小松飛行場
RJNS 静岡空港
RJOH 美保飛行場
RJOC 出雲空港
RJOB 岡山空港
RJOA 広島空港
RJOI 岩国飛行場
RJOT 高松空港
RJOM 松山空港
RJOK 高知空港
RJFR 北九州空港
RJFT 熊本空港
RJFU 長崎空港
RJFS 佐賀空港
RJFO 大分空港
RJFM 宮崎空港
RJFK 鹿児島空港
ROIG 石垣島空港
RJTY 横田飛行場
ROTM 普天間飛行場
RODN 嘉手納飛行場